Time;durP1;ratioP1;P1;durP2;ratioP2;P2;SDS_P1;SDS_P2;PMS_P1;PMS_P2;Temp;Humidity;BMP_temperature;BMP_pressure;BME280_temperature;BME280_humidity;BME280_pressure;Samples;Min_cycle;Max_cycle;Signal;HPM_P1;HPM_P2
2022/05/04 00:00:46;;;;;;;3.25;2.45;;;10.00;23.40;;;;;;4988475;28;34233;-76
2022/05/04 00:03:12;;;;;;;4.55;2.88;;;9.90;23.50;;;;;;4973083;28;34607;-76
2022/05/04 00:05:38;;;;;;;3.33;2.58;;;9.90;23.60;;;;;;4952482;28;35799;-76
2022/05/04 00:08:05;;;;;;;3.10;2.78;;;9.80;23.60;;;;;;4955140;28;35451;-76
2022/05/04 00:10:31;;;;;;;3.13;2.70;;;9.80;23.70;;;;;;4986550;28;35264;-76
2022/05/04 00:12:58;;;;;;;2.75;2.55;;;9.80;23.80;;;;;;4990823;28;34346;-75
2022/05/04 00:15:25;;;;;;;3.20;2.78;;;9.70;23.80;;;;;;5005411;28;34975;-76
2022/05/04 00:17:51;;;;;;;4.18;2.88;;;9.70;23.70;;;;;;4972049;28;34302;-75
2022/05/04 00:20:18;;;;;;;3.53;2.65;;;9.70;23.70;;;;;;5004822;28;34010;-75
2022/05/04 00:22:44;;;;;;;4.72;2.80;;;9.60;23.90;;;;;;4988819;28;34148;-75
2022/05/04 00:25:11;;;;;;;2.85;2.53;;;9.60;24.00;;;;;;4985812;28;35756;-76
2022/05/04 00:27:37;;;;;;;4.22;2.55;;;9.50;24.00;;;;;;4952270;28;34266;-76
2022/05/04 00:30:05;;;;;;;5.60;2.45;;;9.50;24.20;;;;;;4967003;28;34178;-76
2022/05/04 00:32:31;;;;;;;5.63;2.90;;;9.50;24.40;;;;;;4949659;28;34149;-76
2022/05/04 00:34:58;;;;;;;2.42;2.22;;;9.40;24.20;;;;;;4966164;28;35808;-76
2022/05/04 00:37:24;;;;;;;2.83;2.58;;;9.40;24.20;;;;;;4949683;28;34359;-76
2022/05/04 00:39:50;;;;;;;3.22;2.90;;;9.40;24.20;;;;;;4949504;28;34387;-76
2022/05/04 00:42:19;;;;;;;6.07;2.75;;;9.40;24.20;;;;;;4949703;28;34500;-75
2022/05/04 00:44:50;;;;;;;4.07;2.90;;;9.40;24.40;;;;;;4949363;28;34648;-76
2022/05/04 00:47:16;;;;;;;3.22;2.92;;;9.40;25.10;;;;;;4966692;28;34168;-76
2022/05/04 00:49:46;;;;;;;2.97;2.42;;;9.30;24.40;;;;;;4966159;28;34079;-77
2022/05/04 00:52:13;;;;;;;3.15;2.60;;;9.30;24.60;;;;;;4949297;28;34057;-76
2022/05/04 00:54:42;;;;;;;5.07;2.65;;;9.20;24.50;;;;;;4932972;28;35578;-76
2022/05/04 00:57:10;;;;;;;2.90;2.20;;;9.20;24.70;;;;;;4949513;28;34112;-76
2022/05/04 00:59:37;;;;;;;3.83;2.90;;;9.10;24.70;;;;;;4949108;28;34074;-76
2022/05/04 01:02:04;;;;;;;4.15;2.30;;;9.10;24.90;;;;;;4949231;28;34332;-76
2022/05/04 01:04:30;;;;;;;3.33;2.83;;;9.10;24.80;;;;;;4961916;28;35662;-75
2022/05/04 01:06:56;;;;;;;3.97;2.63;;;9.10;24.80;;;;;;4987357;28;34345;-76
2022/05/04 01:09:22;;;;;;;4.15;2.40;;;9.00;24.90;;;;;;4988144;28;34436;-75
2022/05/04 01:11:49;;;;;;;5.97;2.70;;;8.90;25.00;;;;;;4987373;28;34391;-76
2022/05/04 01:14:16;;;;;;;4.40;2.55;;;8.90;25.00;;;;;;5005209;28;34988;-75
2022/05/04 01:16:48;;;;;;;5.80;3.30;;;8.90;25.00;;;;;;4987304;28;34081;-75
2022/05/04 01:19:14;;;;;;;4.03;2.80;;;8.90;25.10;;;;;;5005540;28;34103;-76
2022/05/04 01:21:41;;;;;;;4.32;2.85;;;8.80;25.00;;;;;;4987636;28;34155;-76
2022/05/04 01:24:09;;;;;;;3.65;2.90;;;8.80;25.10;;;;;;5004959;28;34394;-76
2022/05/04 01:26:35;;;;;;;3.03;2.53;;;8.80;25.40;;;;;;4987602;28;34082;-76
2022/05/04 01:29:02;;;;;;;3.53;2.55;;;8.70;25.30;;;;;;4987561;28;34394;-76
2022/05/04 01:31:28;;;;;;;3.03;2.70;;;8.70;25.40;;;;;;5004346;28;34329;-75
2022/05/04 01:33:55;;;;;;;3.28;2.40;;;8.60;25.50;;;;;;5004478;28;34570;-76
2022/05/04 01:36:21;;;;;;;2.95;2.40;;;8.60;25.80;;;;;;4987416;28;34103;-76
2022/05/04 01:38:47;;;;;;;3.83;2.80;;;8.50;25.70;;;;;;5003189;28;34225;-76
2022/05/04 01:43:54;;;;;;;3.13;2.60;;;8.50;26.20;;;;;;5004622;28;34113;-76
2022/05/04 01:46:21;;;;;;;2.92;2.60;;;8.50;26.00;;;;;;4991889;28;34227;-76
2022/05/04 01:48:49;;;;;;;3.17;2.47;;;8.50;26.10;;;;;;4967034;28;34373;-76
2022/05/04 01:51:15;;;;;;;3.42;2.85;;;8.40;26.10;;;;;;4966163;28;34156;-75
2022/05/04 01:53:41;;;;;;;3.30;2.50;;;8.40;26.20;;;;;;4947964;28;36318;-76
2022/05/04 01:56:08;;;;;;;2.60;2.40;;;8.40;26.30;;;;;;4965671;28;34187;-75
2022/05/04 01:58:34;;;;;;;4.38;2.38;;;8.40;26.40;;;;;;4966072;28;34309;-75
2022/05/04 02:01:01;;;;;;;3.90;2.80;;;8.30;26.40;;;;;;4965954;28;34087;-76
2022/05/04 02:03:28;;;;;;;2.97;2.60;;;8.30;26.40;;;;;;4965150;28;35292;-76
2022/05/04 02:05:55;;;;;;;3.10;2.80;;;8.30;26.60;;;;;;4948334;28;34110;-75
2022/05/04 02:08:21;;;;;;;4.30;2.63;;;8.20;26.70;;;;;;4948426;28;34161;-76
2022/05/04 02:10:47;;;;;;;2.90;2.60;;;8.20;26.60;;;;;;4947794;28;34179;-76
2022/05/04 02:13:13;;;;;;;2.92;2.60;;;8.20;26.70;;;;;;4947861;28;36082;-76
2022/05/04 02:15:39;;;;;;;3.40;2.58;;;8.20;26.70;;;;;;4948117;28;34186;-76
2022/05/04 02:18:05;;;;;;;3.15;2.60;;;8.10;26.70;;;;;;4978248;28;34247;-76
2022/05/04 02:20:31;;;;;;;2.92;2.50;;;8.10;26.90;;;;;;5004581;28;34083;-75
2022/05/04 02:22:57;;;;;;;4.68;2.50;;;8.00;26.80;;;;;;4986371;28;36235;-76
2022/05/04 02:25:23;;;;;;;3.33;2.75;;;8.00;26.90;;;;;;5004194;28;34040;-75
2022/05/04 02:27:49;;;;;;;5.95;2.65;;;8.00;26.90;;;;;;4986977;28;34000;-76
2022/05/04 02:30:15;;;;;;;3.65;2.47;;;7.90;26.90;;;;;;5003652;28;34391;-75
2022/05/04 02:32:41;;;;;;;5.22;2.83;;;7.90;27.20;;;;;;4986403;28;35731;-76
2022/05/04 02:37:57;;;;;;;2.97;2.60;;;7.90;27.30;;;;;;5003497;28;34196;-76
2022/05/04 02:40:26;;;;;;;9.63;3.13;;;7.80;27.30;;;;;;4986752;28;34042;-75
2022/05/04 02:42:52;;;;;;;3.28;2.67;;;7.80;27.30;;;;;;4985095;28;35552;-75
2022/05/04 02:45:18;;;;;;;3.10;2.63;;;7.80;27.50;;;;;;5003876;28;34253;-75
2022/05/04 02:47:44;;;;;;;3.63;2.72;;;7.80;27.50;;;;;;4986657;28;34093;-76
2022/05/04 02:50:10;;;;;;;3.95;2.63;;;7.70;27.70;;;;;;4986717;28;34438;-76
2022/05/04 02:52:36;;;;;;;4.65;2.83;;;7.70;27.70;;;;;;5003589;28;34950;-76
2022/05/04 02:55:04;;;;;;;3.53;2.88;;;7.60;27.70;;;;;;4986090;28;34077;-76
2022/05/04 02:57:30;;;;;;;4.20;3.00;;;7.50;27.90;;;;;;4986677;28;34312;-76
2022/05/04 02:59:56;;;;;;;3.78;2.88;;;7.50;27.80;;;;;;5003030;28;34330;-75
2022/05/04 03:02:29;;;;;;;3.42;2.78;;;7.40;27.90;;;;;;4986228;28;35709;-75
2022/05/04 03:05:00;;;;;;;3.33;2.40;;;7.40;27.90;;;;;;5003716;28;34131;-75
2022/05/04 03:07:26;;;;;;;2.85;2.53;;;7.40;28.40;;;;;;5003736;28;34084;-76
2022/05/04 03:09:54;;;;;;;3.10;2.75;;;7.40;28.10;;;;;;4985765;28;34525;-76
2022/05/04 03:12:20;;;;;;;3.60;2.88;;;7.40;28.30;;;;;;4985830;28;36003;-75
2022/05/04 03:14:46;;;;;;;3.08;2.78;;;7.30;28.20;;;;;;5003204;28;34404;-75
2022/05/04 03:17:12;;;;;;;2.80;2.50;;;7.30;28.20;;;;;;4986013;28;34235;-76
2022/05/04 03:19:38;;;;;;;3.50;3.20;;;7.30;28.40;;;;;;4986007;28;34578;-76
2022/05/04 03:22:05;;;;;;;3.72;3.15;;;7.30;28.60;;;;;;4985684;28;36510;-75
2022/05/04 03:24:31;;;;;;;4.13;3.17;;;7.30;28.60;;;;;;4970009;28;34032;-76
2022/05/04 03:26:57;;;;;;;4.10;3.13;;;7.20;28.60;;;;;;4985870;28;34350;-75
2022/05/04 03:29:23;;;;;;;3.30;2.80;;;7.20;28.70;;;;;;4985998;28;34059;-75
2022/05/04 03:31:49;;;;;;;3.60;2.92;;;7.20;28.70;;;;;;4984918;28;35481;-76
2022/05/04 03:34:15;;;;;;;4.35;3.15;;;7.10;28.70;;;;;;4986134;28;34107;-76
2022/05/04 03:36:41;;;;;;;3.78;3.25;;;7.10;28.80;;;;;;4985935;28;34077;-75
2022/05/04 03:39:08;;;;;;;4.38;3.40;;;7.10;28.80;;;;;;4985997;28;34425;-76
2022/05/04 03:41:34;;;;;;;4.65;3.10;;;7.10;28.90;;;;;;4985455;28;35786;-76
2022/05/04 03:44:01;;;;;;;3.58;3.10;;;7.10;29.10;;;;;;4985994;28;34133;-76
2022/05/04 03:46:28;;;;;;;3.35;2.65;;;7.10;29.30;;;;;;4985844;28;34179;-76
2022/05/04 03:48:56;;;;;;;4.68;3.65;;;7.10;29.20;;;;;;4986143;28;34081;-76
2022/05/04 06:19:06;;;;;;;5.95;4.38;;;11.90;28.10;;;;;;5452743;22;34095;-75
2022/05/04 06:21:32;;;;;;;8.40;4.15;;;11.90;26.60;;;;;;5024007;28;34126;-74
2022/05/04 06:23:57;;;;;;;6.03;4.25;;;11.90;26.60;;;;;;4989499;28;34207;-75
2022/05/04 06:26:29;;;;;;;6.72;4.57;;;12.00;26.70;;;;;;4987844;28;34138;-75
2022/05/04 06:28:54;;;;;;;7.63;4.35;;;11.90;26.90;;;;;;4973270;28;35482;-75
2022/05/04 06:36:43;;;;;;;5.03;3.85;;;12.00;27.30;;;;;;5023149;28;34228;-75
2022/05/04 06:39:10;;;;;;;7.68;4.30;;;12.20;27.00;;;;;;5005522;28;35733;-75
2022/05/04 06:41:37;;;;;;;9.32;4.90;;;12.70;26.60;;;;;;4989887;28;34320;-75
2022/05/04 06:44:04;;;;;;;4.93;4.25;;;13.40;25.30;;;;;;4989779;28;34086;-75
2022/05/04 06:46:31;;;;;;;6.88;4.72;;;14.10;23.90;;;;;;4974081;28;34504;-75
2022/05/04 06:48:57;;;;;;;8.27;4.82;;;14.80;22.40;;;;;;5023415;28;34116;-75
2022/05/04 06:51:23;;;;;;;8.23;4.93;;;15.40;21.20;;;;;;5005759;28;34091;-75
2022/05/04 06:53:49;;;;;;;6.43;4.50;;;15.90;21.00;;;;;;4987878;28;34053;-75
2022/05/04 06:56:15;;;;;;;5.80;4.93;;;16.50;19.80;;;;;;5023903;28;34444;-75
2022/05/04 06:58:42;;;;;;;7.03;4.90;;;17.00;19.20;;;;;;5005663;28;35576;-75
2022/05/04 07:01:10;;;;;;;8.57;5.10;;;17.40;18.70;;;;;;5005853;28;34264;-75
2022/05/04 07:03:37;;;;;;;9.13;6.00;;;17.80;18.00;;;;;;5005499;28;34178;-75
2022/05/04 07:06:03;;;;;;;6.93;5.57;;;18.30;17.50;;;;;;5005689;28;34420;-75
2022/05/04 07:08:29;;;;;;;7.05;5.60;;;18.60;16.70;;;;;;5005806;28;35365;-75
2022/05/04 07:10:56;;;;;;;12.52;6.75;;;18.80;16.50;;;;;;5005792;28;34148;-75
2022/05/04 07:13:23;;;;;;;8.45;6.68;;;19.00;15.70;;;;;;4987267;28;34183;-75
2022/05/04 07:15:50;;;;;;;11.57;7.80;;;18.90;15.90;;;;;;4988070;28;34217;-75
2022/05/04 07:18:16;;;;;;;10.93;7.40;;;18.80;15.90;;;;;;5022825;28;35090;-75
2022/05/04 07:20:42;;;;;;;12.00;8.00;;;18.90;16.10;;;;;;4985875;28;34131;-75
2022/05/04 07:23:08;;;;;;;10.60;7.20;;;19.10;16.10;;;;;;4986364;28;34181;-75
2022/05/04 07:25:34;;;;;;;11.00;7.68;;;19.20;15.50;;;;;;4985987;28;34058;-75
2022/05/04 07:28:00;;;;;;;13.20;8.45;;;19.00;16.30;;;;;;5002292;28;35633;-75
2022/05/04 07:30:26;;;;;;;9.40;6.60;;;19.00;16.50;;;;;;5006298;28;34227;-75
2022/05/04 07:32:52;;;;;;;10.55;6.97;;;18.90;16.80;;;;;;4989573;28;34234;-76
2022/05/04 07:35:18;;;;;;;9.48;7.13;;;18.80;17.00;;;;;;4990485;28;34110;-75
2022/05/04 07:38:03;;;;;;;10.15;6.80;;;19.00;17.10;;;;;;5008225;28;35894;-75
2022/05/04 07:43:10;;;;;;;13.18;6.78;;;19.20;16.60;;;;;;5003714;28;34113;-75
2022/05/04 07:45:36;;;;;;;9.32;6.55;;;19.20;16.60;;;;;;4989086;28;34409;-75
2022/05/04 07:48:02;;;;;;;10.10;6.78;;;19.30;16.50;;;;;;5002781;28;35767;-75
2022/05/04 07:50:28;;;;;;;9.18;6.22;;;19.50;16.30;;;;;;5008689;28;35390;-75
2022/05/04 07:52:54;;;;;;;11.52;6.88;;;19.70;16.60;;;;;;5007976;28;34520;-75
2022/05/04 07:55:20;;;;;;;11.32;7.55;;;20.00;16.20;;;;;;5026525;28;34109;-75
2022/05/04 07:57:48;;;;;;;9.20;6.57;;;20.10;16.00;;;;;;4998825;28;36516;-75
2022/05/04 08:05:41;;;;;;;9.75;6.82;;;19.90;15.80;;;;;;5021737;28;34354;-76
2022/05/04 08:08:08;;;;;;;10.85;7.60;;;20.00;15.50;;;;;;4994193;28;36437;-75
2022/05/04 08:10:34;;;;;;;12.15;7.22;;;20.00;16.00;;;;;;5025455;28;34217;-76
2022/05/04 08:13:00;;;;;;;12.90;7.60;;;20.10;15.80;;;;;;5007829;28;34378;-75
2022/05/04 08:15:26;;;;;;;11.45;7.85;;;20.20;15.40;;;;;;5008628;28;34173;-75
2022/05/04 08:17:52;;;;;;;10.15;7.47;;;20.30;15.30;;;;;;5024879;28;35211;-75
2022/05/04 08:20:18;;;;;;;11.80;7.88;;;20.40;15.00;;;;;;5008006;28;34202;-76
2022/05/04 08:22:44;;;;;;;11.23;7.22;;;20.50;14.90;;;;;;4971864;28;34405;-76
2022/05/04 08:25:10;;;;;;;11.10;7.38;;;20.70;14.80;;;;;;4972450;28;34447;-76
2022/05/04 08:27:36;;;;;;;9.68;6.95;;;20.80;14.30;;;;;;5007167;28;35106;-76
2022/05/04 08:30:03;;;;;;;11.43;6.55;;;21.00;13.90;;;;;;5007557;28;34186;-76
2022/05/04 08:32:30;;;;;;;13.88;7.22;;;21.00;13.80;;;;;;4994900;28;34094;-75
2022/05/04 08:34:57;;;;;;;10.57;7.07;;;21.10;13.80;;;;;;5007632;28;34358;-75
2022/05/04 08:37:23;;;;;;;8.65;6.63;;;20.90;13.40;;;;;;5025138;28;34415;-75
2022/05/04 08:39:49;;;;;;;10.02;7.13;;;20.80;13.50;;;;;;5024391;28;34242;-75
2022/05/04 08:42:18;;;;;;;10.05;7.38;;;20.90;13.40;;;;;;5007085;28;34173;-75
2022/05/04 08:44:47;;;;;;;7.57;6.22;;;21.00;13.20;;;;;;5007287;28;34169;-76
2022/05/04 08:47:17;;;;;;;10.55;7.43;;;21.20;12.60;;;;;;5009780;28;36282;-75
2022/05/04 08:49:46;;;;;;;12.23;7.22;;;21.40;12.90;;;;;;4999540;28;34395;-75
2022/05/04 08:52:13;;;;;;;9.50;6.70;;;21.60;12.50;;;;;;5027991;28;34536;-78
2022/05/04 08:54:40;;;;;;;8.20;6.45;;;21.80;12.80;;;;;;5007445;28;34502;-76
2022/05/04 08:57:07;;;;;;;10.52;6.57;;;22.10;12.60;;;;;;5007368;28;36695;-75
2022/05/04 08:59:34;;;;;;;9.00;6.40;;;22.40;12.40;;;;;;5007480;28;34097;-76
2022/05/04 09:02:00;;;;;;;10.48;6.95;;;22.50;12.00;;;;;;5006922;28;34289;-77
2022/05/04 09:04:26;;;;;;;11.02;6.43;;;22.80;11.70;;;;;;5007878;28;34180;-78
2022/05/04 09:06:52;;;;;;;9.52;6.55;;;23.20;11.50;;;;;;5006895;28;35562;-77
2022/05/04 09:09:18;;;;;;;10.45;6.80;;;23.40;10.80;;;;;;5007226;28;34489;-77
2022/05/04 09:11:45;;;;;;;10.27;7.20;;;23.60;10.60;;;;;;5006975;28;34184;-74
2022/05/04 09:14:15;;;;;;;11.50;6.93;;;23.80;10.00;;;;;;5007791;28;34087;-75
2022/05/04 09:16:41;;;;;;;13.35;7.38;;;23.90;8.80;;;;;;5006792;28;36395;-75
2022/05/04 09:19:09;;;;;;;11.68;6.82;;;24.00;9.60;;;;;;5024576;28;34399;-75
2022/05/04 09:21:36;;;;;;;9.60;6.68;;;24.00;9.30;;;;;;4987733;28;34702;-77
2022/05/04 09:24:02;;;;;;;8.90;6.38;;;24.10;9.40;;;;;;4971365;28;34393;-75
2022/05/04 09:26:28;;;;;;;8.45;6.30;;;24.10;9.20;;;;;;4970999;28;36657;-75
2022/05/04 09:29:06;;;;;;;8.65;5.97;;;24.10;9.20;;;;;;4971204;28;34206;-75
2022/05/04 09:31:32;;;;;;;9.82;6.65;;;24.30;7.60;;;;;;4972578;28;34284;-75
2022/05/04 09:34:00;;;;;;;9.05;6.45;;;24.30;9.30;;;;;;5004548;28;34243;-75
2022/05/04 09:45:12;;;;;;;10.43;6.43;;;24.80;5.20;;;;;;5020587;28;35076;-74
2022/05/04 09:47:40;;;;;;;13.60;6.97;;;25.00;4.10;;;;;;5006536;28;35816;-76
2022/05/04 09:50:08;;;;;;;8.48;6.07;;;24.90;6.70;;;;;;5007159;28;34506;-77
2022/05/04 09:52:50;;;;;;;11.00;6.82;;;24.70;7.90;;;;;;5006380;28;34379;-76
2022/05/04 09:55:22;;;;;;;8.70;6.25;;;24.80;4.40;;;;;;4990447;28;34494;-76
2022/05/04 09:57:49;;;;;;;8.70;6.40;;;24.90;6.90;;;;;;4970894;28;35537;-76
2022/05/04 10:00:19;;;;;;;10.40;6.93;;;24.90;7.50;;;;;;5004056;28;34171;-76
2022/05/04 10:02:46;;;;;;;9.85;5.63;;;25.10;7.10;;;;;;5002441;28;34383;-75
2022/05/04 10:05:13;;;;;;;9.88;6.78;;;25.20;7.40;;;;;;4986849;28;34295;-76
2022/05/04 10:07:40;;;;;;;10.30;6.68;;;25.30;6.90;;;;;;4970509;28;35950;-78
2022/05/04 10:10:07;;;;;;;10.30;6.57;;;25.40;6.80;;;;;;4986681;28;34537;-76
2022/05/04 10:12:39;;;;;;;8.55;6.03;;;25.50;6.50;;;;;;5004421;28;34158;-76
2022/05/04 10:15:08;;;;;;;8.75;6.45;;;25.70;4.70;;;;;;4971154;28;34098;-75
2022/05/04 10:17:38;;;;;;;7.63;5.93;;;25.80;3.60;;;;;;4970365;28;35658;-75
2022/05/04 10:20:12;;;;;;;9.40;5.95;;;25.80;4.00;;;;;;4970202;28;34149;-77
2022/05/04 10:23:01;;;;;;;9.00;5.63;;;25.70;2.30;;;;;;4986893;28;34116;-76
2022/05/04 10:25:32;;;;;;;8.10;5.85;;;25.60;3.70;;;;;;4987303;28;34214;-76
2022/05/04 10:28:07;;;;;;;10.25;6.55;;;25.70;3.50;;;;;;4970079;28;35705;-76
2022/05/04 10:30:34;;;;;;;9.68;6.43;;;25.70;1.00;;;;;;4987335;28;34176;-77
2022/05/04 10:33:06;;;;;;;7.80;5.82;;;25.60;4.50;;;;;;4985975;28;34451;-76
2022/05/04 10:35:42;;;;;;;7.97;6.10;;;25.70;3.10;;;;;;4995577;28;34049;-77
2022/05/04 10:38:31;;;;;;;7.28;5.30;;;25.60;2.20;;;;;;4974274;28;36962;-77
2022/05/04 10:43:47;;;;;;;7.55;6.00;;;25.70;3.90;;;;;;5023304;28;34563;-75
2022/05/04 10:46:20;;;;;;;8.68;6.18;;;25.80;2.70;;;;;;4987422;28;34617;-75
2022/05/04 10:48:56;;;;;;;7.40;6.05;;;25.70;1.30;;;;;;4986878;28;36136;-75
2022/05/04 10:51:24;;;;;;;9.25;6.18;;;25.80;1.90;;;;;;5005128;28;34075;-75
2022/05/04 10:53:53;;;;;;;6.70;5.97;;;25.80;3.90;;;;;;5023111;28;34077;-76
2022/05/04 10:56:24;;;;;;;8.20;5.78;;;25.60;3.90;;;;;;4989996;28;34574;-76
2022/05/04 10:58:57;;;;;;;8.20;6.18;;;25.40;2.90;;;;;;4988867;28;35882;-75
2022/05/04 11:01:27;;;;;;;8.23;6.35;;;25.20;2.40;;;;;;5005811;28;34209;-75
2022/05/04 11:04:17;;;;;;;9.32;5.55;;;25.10;4.40;;;;;;5023708;28;34041;-76
2022/05/04 11:06:49;;;;;;;7.30;5.93;;;25.30;2.40;;;;;;4975976;28;34065;-77
2022/05/04 11:09:18;;;;;;;9.45;5.63;;;25.10;3.90;;;;;;5007119;28;36297;-77
2022/05/04 11:14:50;;;;;;;7.50;6.00;;;25.50;3.80;;;;;;4995930;28;34262;-76
2022/05/04 11:17:16;;;;;;;8.32;5.93;;;25.90;3.40;;;;;;5009989;28;34369;-77
2022/05/04 11:19:45;;;;;;;7.20;5.55;;;26.30;3.50;;;;;;4976761;28;35533;-76
2022/05/04 11:22:13;;;;;;;8.27;6.15;;;26.60;3.00;;;;;;5027560;28;34089;-77
2022/05/04 11:24:39;;;;;;;7.70;5.90;;;26.60;2.80;;;;;;5009007;28;34303;-77
2022/05/04 11:27:06;;;;;;;7.72;6.25;;;26.50;2.90;;;;;;5010451;28;34053;-77
2022/05/04 11:29:33;;;;;;;7.68;6.00;;;26.30;2.90;;;;;;5009033;28;35670;-76
2022/05/04 11:32:02;;;;;;;6.75;5.70;;;26.00;3.20;;;;;;5026401;28;34158;-78
2022/05/04 11:34:36;;;;;;;7.68;5.72;;;25.80;2.80;;;;;;4993236;28;34082;-77
2022/05/04 11:37:05;;;;;;;8.40;6.07;;;25.60;2.30;;;;;;5008757;28;34534;-75
2022/05/04 11:39:33;;;;;;;8.23;6.10;;;25.30;2.40;;;;;;5008673;28;35179;-76
2022/05/04 11:42:00;;;;;;;9.52;6.03;;;25.20;3.70;;;;;;5026587;28;34062;-76
2022/05/04 11:44:29;;;;;;;10.13;6.80;;;25.30;3.60;;;;;;4993232;28;34297;-78
2022/05/04 11:46:57;;;;;;;7.70;6.40;;;25.40;3.40;;;;;;5027371;28;34338;-76
2022/05/04 11:49:26;;;;;;;10.90;6.20;;;25.30;3.30;;;;;;5008390;28;36080;-76
2022/05/04 11:51:54;;;;;;;9.05;5.97;;;25.20;3.30;;;;;;5008772;28;33984;-76
2022/05/04 11:54:20;;;;;;;8.77;6.47;;;25.30;3.30;;;;;;5008454;28;35275;-75
2022/05/04 11:56:46;;;;;;;11.27;6.30;;;25.20;3.50;;;;;;5008701;28;34207;-76
2022/05/04 11:59:13;;;;;;;7.85;5.78;;;25.10;3.50;;;;;;5026611;28;34210;-79
2022/05/04 12:01:40;;;;;;;8.10;6.40;;;25.10;3.60;;;;;;5008551;28;34373;-77
2022/05/04 12:04:09;;;;;;;9.02;6.35;;;25.10;3.70;;;;;;5008395;28;34257;-77
2022/05/04 12:06:35;;;;;;;7.35;5.85;;;25.00;3.60;;;;;;4992478;28;34526;-77
2022/05/04 12:09:02;;;;;;;7.85;6.18;;;24.90;3.80;;;;;;5008136;28;35780;-78
2022/05/04 12:11:29;;;;;;;9.32;6.82;;;24.70;3.70;;;;;;4992263;28;34295;-75
2022/05/04 12:13:56;;;;;;;8.18;6.68;;;24.50;3.70;;;;;;5007984;28;34553;-77
2022/05/04 12:16:23;;;;;;;12.02;6.10;;;24.40;3.70;;;;;;5008474;28;34098;-78
2022/05/04 12:18:50;;;;;;;8.68;6.38;;;24.40;3.50;;;;;;5007896;28;34355;-76
2022/05/04 12:21:19;;;;;;;13.90;6.38;;;24.60;3.70;;;;;;4991818;28;34129;-78
2022/05/04 12:23:48;;;;;;;11.60;6.68;;;25.00;3.20;;;;;;5025478;28;34280;-75
2022/05/04 12:26:15;;;;;;;12.98;6.55;;;25.30;2.20;;;;;;4991972;28;34492;-75
2022/05/04 12:28:43;;;;;;;8.80;6.57;;;25.50;2.50;;;;;;5025932;28;35415;-76
2022/05/04 12:33:51;;;;;;;8.05;5.80;;;25.70;1.90;;;;;;4990960;28;34426;-78
2022/05/04 12:36:19;;;;;;;6.80;5.43;;;25.70;2.20;;;;;;4972577;28;34377;-77
2022/05/04 12:38:48;;;;;;;9.38;5.72;;;25.70;2.10;;;;;;5003398;28;34825;-77
2022/05/04 12:41:18;;;;;;;8.75;5.80;;;25.80;2.00;;;;;;5007916;28;34103;-77
2022/05/04 12:43:45;;;;;;;5.75;4.85;;;25.70;1.40;;;;;;4991721;28;34095;-77
2022/05/04 12:46:15;;;;;;;6.93;5.25;;;25.40;2.30;;;;;;5026409;28;34291;-77
2022/05/04 12:48:43;;;;;;;8.75;5.45;;;25.20;2.20;;;;;;5008060;28;35464;-76
2022/05/04 12:51:10;;;;;;;7.68;5.72;;;25.00;2.70;;;;;;4991369;28;34328;-76
2022/05/04 12:53:39;;;;;;;6.20;5.03;;;24.80;3.00;;;;;;5007812;28;34199;-77
2022/05/04 12:58:49;;;;;;;6.18;5.05;;;24.60;3.20;;;;;;5009742;28;34139;-76
2022/05/04 13:01:14;;;;;;;11.32;5.85;;;24.50;3.50;;;;;;5008759;28;34103;-78
2022/05/04 13:03:40;;;;;;;8.23;6.15;;;24.40;3.50;;;;;;5007890;28;34163;-78
2022/05/04 13:06:06;;;;;;;11.50;6.80;;;24.20;3.80;;;;;;5026106;28;34267;-77
2022/05/04 13:08:32;;;;;;;9.07;6.18;;;24.30;3.80;;;;;;5007750;28;36071;-77
2022/05/04 13:10:59;;;;;;;10.98;6.57;;;24.30;3.80;;;;;;4990954;28;34216;-78
2022/05/04 13:13:26;;;;;;;8.50;6.55;;;24.50;3.50;;;;;;5007771;28;34217;-76
2022/05/04 13:15:52;;;;;;;8.88;6.03;;;24.70;3.50;;;;;;5008620;28;34330;-75
2022/05/04 13:18:19;;;;;;;12.68;6.63;;;24.90;3.50;;;;;;5025412;28;34747;-76
2022/05/04 13:20:46;;;;;;;8.57;6.53;;;25.00;3.30;;;;;;5007194;28;34186;-77
2022/05/04 13:23:12;;;;;;;15.45;6.72;;;25.00;3.30;;;;;;5008473;28;34403;-77
2022/05/04 13:25:38;;;;;;;8.45;6.22;;;25.20;3.00;;;;;;4991000;28;34323;-76
2022/05/04 13:28:04;;;;;;;20.58;7.55;;;25.40;2.80;;;;;;5024001;28;34493;-76
2022/05/04 13:30:31;;;;;;;9.63;5.97;;;25.50;2.60;;;;;;4990694;28;34411;-76
2022/05/04 13:32:57;;;;;;;11.60;7.07;;;25.20;2.60;;;;;;4990846;28;34332;-77
2022/05/04 13:35:23;;;;;;;10.45;5.90;;;25.00;2.90;;;;;;5007365;28;34366;-77
2022/05/04 13:37:49;;;;;;;9.13;6.47;;;24.90;3.10;;;;;;5006368;28;35775;-77
2022/05/04 13:40:18;;;;;;;8.20;6.18;;;24.70;3.40;;;;;;5024434;28;33991;-78
2022/05/04 13:42:44;;;;;;;8.63;5.97;;;24.60;3.20;;;;;;4990416;28;34420;-76
2022/05/04 13:45:11;;;;;;;14.68;6.38;;;24.40;3.40;;;;;;4990642;28;34104;-78
2022/05/04 13:47:38;;;;;;;8.43;5.85;;;24.30;3.80;;;;;;5006965;28;35668;-76
2022/05/04 13:50:05;;;;;;;7.00;5.40;;;24.20;3.70;;;;;;5024595;28;34097;-77
2022/05/04 13:55:12;;;;;;;6.78;5.70;;;24.00;4.10;;;;;;5023803;28;34607;-79
2022/05/04 13:57:39;;;;;;;9.20;5.38;;;23.80;4.20;;;;;;5013945;28;34123;-77
2022/05/04 14:00:07;;;;;;;21.70;6.10;;;23.70;4.20;;;;;;5033888;28;34291;-76
2022/05/04 14:02:33;;;;;;;17.08;6.10;;;23.50;4.20;;;;;;5029656;28;34224;-76
2022/05/04 14:04:59;;;;;;;11.35;6.10;;;23.30;4.30;;;;;;5024064;28;34338;-77
2022/05/04 14:07:26;;;;;;;9.07;5.90;;;23.20;4.50;;;;;;4989991;28;35946;-76
2022/05/04 14:09:52;;;;;;;11.10;5.78;;;23.10;4.60;;;;;;5006409;28;34486;-77
2022/05/04 14:12:17;;;;;;;8.18;5.40;;;23.10;4.70;;;;;;5024742;28;34053;-78
2022/05/04 14:17:25;;;;;;;7.65;5.20;;;22.90;4.70;;;;;;5008864;28;34710;-76
2022/05/04 14:19:50;;;;;;;7.55;5.47;;;22.80;4.70;;;;;;5005767;28;34497;-76
2022/05/04 14:22:16;;;;;;;6.93;4.75;;;22.80;4.80;;;;;;5007071;28;34306;-77
2022/05/04 14:24:42;;;;;;;8.32;5.22;;;22.80;5.10;;;;;;5007082;28;34430;-77
2022/05/04 14:27:08;;;;;;;10.75;6.30;;;22.70;5.10;;;;;;5006917;28;35939;-77
2022/05/04 14:29:35;;;;;;;7.63;5.47;;;22.60;5.50;;;;;;4990374;28;34091;-77
2022/05/04 14:32:01;;;;;;;9.95;6.47;;;22.50;6.00;;;;;;5006018;28;34234;-77
2022/05/04 14:34:27;;;;;;;13.38;5.82;;;22.60;6.30;;;;;;4990537;28;34063;-77
2022/05/04 14:36:54;;;;;;;11.10;6.50;;;22.50;6.30;;;;;;5023941;28;34327;-77
2022/05/04 14:39:20;;;;;;;10.60;5.47;;;22.60;6.60;;;;;;5005883;28;34353;-77
2022/05/04 14:41:46;;;;;;;11.15;5.30;;;22.70;6.70;;;;;;5023689;28;34221;-77
2022/05/04 14:44:12;;;;;;;5.97;5.03;;;22.70;6.60;;;;;;5006389;28;34192;-75
2022/05/04 14:46:38;;;;;;;8.38;5.97;;;22.80;6.50;;;;;;4989833;28;35708;-77
2022/05/04 14:49:05;;;;;;;11.77;6.45;;;22.70;6.20;;;;;;4989928;28;34229;-76
2022/05/04 14:51:31;;;;;;;9.48;6.18;;;22.70;6.10;;;;;;5023465;28;34201;-76
2022/05/04 14:53:57;;;;;;;10.32;5.40;;;22.70;6.00;;;;;;5023568;28;34442;-77
2022/05/04 14:56:23;;;;;;;7.47;5.47;;;22.60;5.90;;;;;;5005701;28;35513;-76
2022/05/04 14:58:49;;;;;;;7.20;5.53;;;22.60;5.90;;;;;;4989876;28;34091;-76
2022/05/04 15:01:15;;;;;;;9.95;5.72;;;22.60;6.10;;;;;;5006025;28;34474;-76
2022/05/04 15:06:22;;;;;;;5.80;4.63;;;22.70;6.10;;;;;;5022476;28;34601;-77
2022/05/04 15:08:48;;;;;;;7.70;5.05;;;22.80;6.20;;;;;;5005264;28;34492;-76
2022/05/04 15:11:14;;;;;;;11.95;4.97;;;22.80;6.00;;;;;;5022273;28;34142;-75
2022/05/04 15:13:40;;;;;;;6.47;4.80;;;22.70;5.90;;;;;;5022238;28;34312;-79
2022/05/04 15:16:06;;;;;;;8.30;4.97;;;22.70;5.80;;;;;;5004572;28;35702;-76
2022/05/04 15:18:34;;;;;;;8.23;4.45;;;22.70;5.70;;;;;;5004842;28;34101;-75
2022/05/04 15:21:00;;;;;;;5.93;4.78;;;22.80;5.50;;;;;;5004593;28;34110;-76
2022/05/04 15:23:27;;;;;;;6.95;4.28;;;22.90;5.90;;;;;;4988141;28;34148;-76
2022/05/04 15:25:54;;;;;;;9.27;4.60;;;22.80;5.20;;;;;;5021686;28;35319;-76
2022/05/04 15:28:20;;;;;;;5.78;4.30;;;22.80;5.30;;;;;;5004276;28;34237;-76
2022/05/04 15:30:46;;;;;;;5.95;4.70;;;22.80;5.30;;;;;;5009156;28;34187;-77
2022/05/04 15:33:11;;;;;;;4.97;4.15;;;22.70;5.20;;;;;;5023100;28;33723;-77
2022/05/04 15:35:37;;;;;;;13.15;4.15;;;22.70;5.30;;;;;;5008104;28;35788;-79
2022/05/04 15:38:03;;;;;;;6.88;3.97;;;22.60;5.20;;;;;;5017215;28;34209;-77
2022/05/04 15:40:30;;;;;;;5.68;3.78;;;22.50;5.10;;;;;;5004689;28;34042;-76
2022/05/04 15:42:57;;;;;;;6.15;4.13;;;22.60;5.10;;;;;;5022604;28;34615;-78
2022/05/04 15:45:23;;;;;;;4.60;3.95;;;22.60;4.80;;;;;;5015357;28;36781;-77
2022/05/04 15:47:49;;;;;;;4.82;3.70;;;22.60;4.80;;;;;;5017786;28;34588;-77
2022/05/04 15:50:15;;;;;;;5.10;3.70;;;22.60;4.70;;;;;;5006790;28;33758;-76
2022/05/04 15:52:42;;;;;;;5.45;3.65;;;22.60;4.60;;;;;;5025037;28;34253;-77
2022/05/04 15:55:09;;;;;;;7.53;3.50;;;22.50;4.60;;;;;;4991428;28;35695;-76
2022/05/04 15:57:35;;;;;;;4.70;3.75;;;22.50;4.70;;;;;;4991252;28;34144;-76
2022/05/04 16:00:04;;;;;;;6.72;3.50;;;22.40;4.60;;;;;;5025348;28;34193;-77
2022/05/04 16:05:14;;;;;;;3.90;3.10;;;22.40;4.50;;;;;;5017336;28;34156;-77
2022/05/04 16:07:40;;;;;;;8.40;3.60;;;22.40;5.10;;;;;;4990792;28;34234;-78
2022/05/04 16:10:07;;;;;;;5.25;3.22;;;22.50;4.80;;;;;;4803660;28;5216819;-77